Time;durP1;ratioP1;P1;durP2;ratioP2;P2;SDS_P1;SDS_P2;PMS_P1;PMS_P2;Temp;Humidity;BMP_temperature;BMP_pressure;BME280_temperature;BME280_humidity;BME280_pressure;Samples;Min_cycle;Max_cycle;Signal;HPM_P1;HPM_P2
2022/04/18 00:00:25;;;;;;;131.40;58.80;;;;;;;-0.12;63.83;99101.09;108011;1281;22536;-75
2022/04/18 00:02:52;;;;;;;130.90;58.10;;;;;;;-0.15;63.75;99095.13;108045;1280;22662;-76
2022/04/18 00:05:19;;;;;;;126.60;54.50;;;;;;;-0.17;63.37;99096.52;107983;1281;24231;-76
2022/04/18 00:07:46;;;;;;;128.40;55.60;;;;;;;-0.20;63.14;99092.15;108028;1281;22683;-76
2022/04/18 00:10:13;;;;;;;120.60;55.10;;;;;;;-0.24;63.07;99090.30;108039;1279;22622;-76
2022/04/18 00:12:40;;;;;;;122.20;53.90;;;;;;;-0.24;63.49;99091.68;108012;1281;25490;-77
2022/04/18 00:15:07;;;;;;;124.10;54.80;;;;;;;-0.24;64.31;99086.02;108013;1281;24184;-75
2022/04/18 00:17:34;;;;;;;99.50;45.30;;;;;;;-0.25;65.47;99089.29;108004;1279;22546;-75
2022/04/18 00:20:02;;;;;;;106.20;47.20;;;;;;;-0.29;65.53;99087.83;108031;1281;25260;-75
2022/04/18 00:22:29;;;;;;;102.00;46.80;;;;;;;-0.33;65.19;99088.55;108050;1281;22686;-75
2022/04/18 00:24:56;;;;;;;104.00;45.70;;;;;;;-0.35;64.97;99084.13;108060;1279;22633;-75
2022/04/18 00:27:23;;;;;;;102.90;46.40;;;;;;;-0.38;64.80;99085.39;108011;1280;22560;-75
2022/04/18 00:29:50;;;;;;;115.20;50.10;;;;;;;-0.42;64.65;99081.31;108023;1281;22628;-75
2022/04/18 00:32:18;;;;;;;124.80;52.80;;;;;;;-0.44;64.53;99079.28;108027;1279;22670;-75
2022/04/18 00:34:45;;;;;;;130.00;56.00;;;;;;;-0.46;64.38;99077.45;108038;1280;24283;-75
2022/04/18 00:37:12;;;;;;;122.20;52.90;;;;;;;-0.48;64.29;99074.73;108032;1281;22675;-75
2022/04/18 00:39:39;;;;;;;120.40;53.00;;;;;;;-0.46;64.60;99070.78;107967;1281;22700;-75
2022/04/18 00:42:06;;;;;;;119.10;54.30;;;;;;;-0.46;65.33;99064.45;108008;1278;23344;-75
2022/04/18 00:44:33;;;;;;;134.80;57.50;;;;;;;-0.49;66.06;99061.40;108013;1281;24911;-75
2022/04/18 00:47:00;;;;;;;144.40;61.40;;;;;;;-0.54;66.25;99055.48;108045;1281;22643;-75
2022/04/18 00:49:28;;;;;;;124.20;56.00;;;;;;;-0.58;66.12;99050.74;108062;1280;22512;-75
2022/04/18 00:51:57;;;;;;;134.10;55.40;;;;;;;-0.61;65.86;99048.72;108003;1279;22867;-75
2022/04/18 00:54:25;;;;;;;124.90;52.90;;;;;;;-0.63;65.71;99048.08;108009;1281;22560;-75
2022/04/18 00:56:54;;;;;;;102.70;44.20;;;;;;;-0.65;65.46;99040.23;108032;1279;25270;-75
2022/04/18 00:59:22;;;;;;;97.10;43.90;;;;;;;-0.67;65.36;99036.84;108036;1279;24234;-75
2022/04/18 01:01:49;;;;;;;103.00;45.30;;;;;;;-0.69;65.30;99035.49;108033;1279;22708;-75
2022/04/18 01:04:17;;;;;;;94.10;44.40;;;;;;;-0.70;65.07;99028.33;108011;1279;22573;-76
2022/04/18 01:06:45;;;;;;;92.40;44.80;;;;;;;-0.66;65.24;99025.04;108048;1279;22535;-76
2022/04/18 01:09:13;;;;;;;88.50;45.90;;;;;;;-0.65;65.91;99021.94;108050;1279;23203;-76
2022/04/18 01:11:40;;;;;;;99.30;44.80;;;;;;;-0.63;66.66;99021.41;108264;1279;22572;-75
2022/04/18 01:14:07;;;;;;;89.30;41.40;;;;;;;-0.66;66.87;99016.83;108054;1279;22708;-75
2022/04/18 01:16:35;;;;;;;91.10;40.70;;;;;;;-0.67;66.68;99017.01;107997;1279;22538;-75
2022/04/18 01:19:02;;;;;;;91.00;41.20;;;;;;;-0.69;66.44;99013.09;108041;1279;22552;-75
2022/04/18 01:21:29;;;;;;;90.20;41.90;;;;;;;-0.71;66.17;99013.98;108026;1279;24405;-76
2022/04/18 01:23:57;;;;;;;87.90;40.90;;;;;;;-0.76;66.30;99013.88;108025;1279;22544;-76
2022/04/18 01:29:10;;;;;;;94.50;40.10;;;;;;;-0.83;65.78;99010.21;108031;1279;23561;-75
2022/04/18 01:31:38;;;;;;;91.60;41.50;;;;;;;-0.82;65.91;99005.92;108042;1279;22703;-76
2022/04/18 01:34:07;;;;;;;91.10;42.40;;;;;;;-0.82;66.58;99000.46;107972;1279;22539;-75
2022/04/18 01:36:34;;;;;;;96.80;43.40;;;;;;;-0.85;67.17;99003.58;108071;1279;22622;-75
2022/04/18 01:39:02;;;;;;;96.70;44.10;;;;;;;-0.91;67.19;98999.38;108024;1279;26243;-76
2022/04/18 01:41:29;;;;;;;105.90;46.10;;;;;;;-0.95;67.03;98998.91;107998;1279;22551;-75
2022/04/18 01:43:57;;;;;;;100.50;45.70;;;;;;;-1.01;66.76;98997.96;108016;1279;22538;-75
2022/04/18 01:46:24;;;;;;;104.70;47.20;;;;;;;-1.07;66.89;98994.80;107935;1279;22615;-76
2022/04/18 01:48:51;;;;;;;96.90;45.70;;;;;;;-1.10;66.64;98991.60;108074;1279;22616;-76
2022/04/18 01:51:19;;;;;;;103.60;48.00;;;;;;;-1.14;66.54;98990.27;108054;1279;22612;-76
2022/04/18 01:53:47;;;;;;;95.30;46.00;;;;;;;-1.16;66.41;98992.00;108014;1278;22587;-77
2022/04/18 01:56:15;;;;;;;110.20;48.00;;;;;;;-1.13;66.69;98986.84;108000;1279;22564;-75
2022/04/18 01:58:42;;;;;;;102.80;46.70;;;;;;;-1.12;67.38;98983.24;107821;1279;259773;-75
2022/04/18 02:01:09;;;;;;;96.20;44.20;;;;;;;-1.13;68.09;98980.52;108042;1279;22572;-75
2022/04/18 02:03:40;;;;;;;105.70;47.10;;;;;;;-1.16;68.23;98977.30;108024;1279;22664;-75
2022/04/18 02:06:08;;;;;;;101.10;46.80;;;;;;;-1.17;67.98;98973.40;108022;1279;22581;-75
2022/04/18 02:08:35;;;;;;;97.70;44.40;;;;;;;-1.19;68.01;98972.73;108023;1279;24577;-75
2022/04/18 02:11:04;;;;;;;113.20;45.30;;;;;;;-1.22;67.62;98973.27;108035;1279;22613;-76
2022/04/18 02:13:32;;;;;;;100.40;44.70;;;;;;;-1.25;67.57;98971.11;108252;1279;24274;-76
2022/04/18 02:15:59;;;;;;;110.00;45.20;;;;;;;-1.28;67.58;98969.44;108029;1279;22538;-75
2022/04/18 02:18:27;;;;;;;95.20;45.00;;;;;;;-1.30;67.21;98964.84;108011;1279;22648;-75
2022/04/18 02:20:54;;;;;;;94.50;44.70;;;;;;;-1.28;67.10;98965.84;108045;1279;22554;-75
2022/04/18 02:23:22;;;;;;;103.90;47.40;;;;;;;-1.27;67.69;98959.85;108012;1279;22559;-76
2022/04/18 02:25:49;;;;;;;104.50;45.30;;;;;;;-1.27;68.38;98963.27;108201;1279;25347;-76
2022/04/18 02:28:16;;;;;;;107.90;48.10;;;;;;;-1.30;68.46;98958.52;108015;1279;22573;-76
2022/04/18 02:30:43;;;;;;;112.90;49.30;;;;;;;-1.32;68.21;98954.61;108005;1279;22563;-75
2022/04/18 02:33:10;;;;;;;104.70;47.10;;;;;;;-1.34;67.97;98949.00;108037;1279;22589;-77
2022/04/18 02:35:38;;;;;;;110.30;48.20;;;;;;;-1.37;67.88;98952.63;108053;1279;22595;-75
2022/04/18 02:38:05;;;;;;;103.80;48.30;;;;;;;-1.39;67.67;98948.38;108084;1279;25362;-76
2022/04/18 02:40:32;;;;;;;105.90;47.80;;;;;;;-1.42;67.55;98948.58;108004;1279;22644;-75
2022/04/18 02:42:59;;;;;;;112.30;48.80;;;;;;;-1.46;67.24;98947.95;108032;1279;22728;-76
2022/04/18 02:45:27;;;;;;;112.30;47.70;;;;;;;-1.48;67.07;98948.32;108043;1279;22574;-75
2022/04/18 02:47:54;;;;;;;98.30;45.70;;;;;;;-1.47;67.34;98946.42;108059;1279;24219;-76
2022/04/18 02:50:21;;;;;;;116.80;49.80;;;;;;;-1.48;67.95;98945.07;108066;1279;22778;-75
2022/04/18 02:52:48;;;;;;;107.50;48.10;;;;;;;-1.49;68.60;98945.08;108034;1279;22561;-76
2022/04/18 02:55:15;;;;;;;111.60;50.50;;;;;;;-1.55;68.83;98943.45;108039;1279;22564;-76
2022/04/18 02:57:43;;;;;;;111.00;51.90;;;;;;;-1.59;68.66;98940.58;107998;1279;22626;-75
2022/04/18 03:00:11;;;;;;;115.40;52.90;;;;;;;-1.62;68.43;98938.75;108038;1279;22573;-76
2022/04/18 03:02:39;;;;;;;121.20;53.60;;;;;;;-1.64;68.23;98938.61;108087;1278;22702;-76
2022/04/18 03:05:08;;;;;;;111.50;51.70;;;;;;;-1.67;68.06;98939.14;108330;1279;22850;-75
2022/04/18 03:07:35;;;;;;;113.60;52.10;;;;;;;-1.71;67.83;98933.73;108188;1279;22564;-78
2022/04/18 03:10:03;;;;;;;107.00;52.20;;;;;;;-1.69;68.11;98931.64;108005;1279;22561;-78
2022/04/18 03:12:30;;;;;;;122.00;51.60;;;;;;;-1.68;68.71;98930.27;108029;1279;22550;-77
2022/04/18 03:14:57;;;;;;;110.20;49.50;;;;;;;-1.68;69.46;98928.55;108062;1279;22540;-77
2022/04/18 03:17:24;;;;;;;123.50;52.20;;;;;;;-1.71;69.56;98929.64;108042;1279;22541;-78
2022/04/18 03:19:52;;;;;;;121.60;52.40;;;;;;;-1.72;69.37;98928.11;108028;1279;22652;-77
2022/04/18 03:22:20;;;;;;;107.40;49.90;;;;;;;-1.74;69.14;98929.66;108029;1278;22561;-77
2022/04/18 03:24:47;;;;;;;110.00;49.50;;;;;;;-1.77;68.80;98928.33;108015;1278;22559;-77
2022/04/18 03:27:14;;;;;;;112.00;51.20;;;;;;;-1.79;68.65;98925.98;108031;1279;22547;-77
2022/04/18 03:29:42;;;;;;;112.90;51.70;;;;;;;-1.81;68.54;98925.48;108074;1279;23306;-75
2022/04/18 03:32:09;;;;;;;111.70;50.00;;;;;;;-1.83;68.33;98917.47;108002;1278;22560;-78
2022/04/18 03:34:36;;;;;;;97.60;47.80;;;;;;;-1.80;68.26;98912.50;108018;1279;22559;-75
2022/04/18 03:39:52;;;;;;;102.10;49.10;;;;;;;-1.77;69.61;98907.84;108026;1279;22596;-75
2022/04/18 03:42:29;;;;;;;114.10;48.70;;;;;;;-1.80;69.51;98904.48;108030;1279;22560;-75
2022/04/18 03:44:59;;;;;;;126.00;51.80;;;;;;;-1.81;69.41;98905.85;108306;1279;22678;-75
2022/04/18 03:47:27;;;;;;;116.40;49.90;;;;;;;-1.83;69.33;98902.27;108043;1279;22559;-76
2022/04/18 03:49:55;;;;;;;107.90;50.50;;;;;;;-1.86;69.17;98900.77;108014;1279;22594;-74
2022/04/18 03:52:24;;;;;;;113.10;51.70;;;;;;;-1.88;69.08;98902.66;108071;1279;25344;-75
2022/04/18 03:54:51;;;;;;;120.90;53.10;;;;;;;-1.91;68.74;98901.34;108084;1279;22666;-75
2022/04/18 03:57:18;;;;;;;112.20;51.60;;;;;;;-1.92;68.58;98903.23;108023;1279;22596;-75
2022/04/18 03:59:46;;;;;;;118.50;54.90;;;;;;;-1.89;68.73;98903.39;108011;1279;22648;-76
2022/04/18 04:02:13;;;;;;;113.00;54.10;;;;;;;-1.86;69.21;98900.60;108025;1279;22534;-75
2022/04/18 04:04:44;;;;;;;105.70;46.50;;;;;;;-1.84;69.89;98902.63;108029;1279;23585;-75
2022/04/18 04:07:11;;;;;;;114.50;51.40;;;;;;;-1.85;70.14;98898.36;108028;1279;25248;-74
2022/04/18 04:09:38;;;;;;;119.30;50.50;;;;;;;-1.85;70.08;98899.90;108029;1279;22552;-75
2022/04/18 04:12:06;;;;;;;120.10;52.60;;;;;;;-1.85;69.75;98894.27;108026;1279;22556;-75
2022/04/18 04:14:33;;;;;;;119.10;51.70;;;;;;;-1.85;69.38;98900.59;108035;1279;22671;-75
2022/04/18 04:17:00;;;;;;;105.50;49.90;;;;;;;-1.85;69.48;98898.70;108024;1279;22762;-75
2022/04/18 04:19:28;;;;;;;111.40;49.60;;;;;;;-1.84;69.14;98897.16;108018;1279;22592;-75
2022/04/18 04:21:55;;;;;;;109.40;50.80;;;;;;;-1.84;69.09;98893.58;108026;1279;22608;-76
2022/04/18 04:24:22;;;;;;;101.60;49.80;;;;;;;-1.82;68.81;98891.69;107982;1279;22701;-75
2022/04/18 04:26:49;;;;;;;105.80;50.20;;;;;;;-1.76;69.00;98888.36;108007;1279;22558;-75
2022/04/18 04:29:17;;;;;;;105.70;50.50;;;;;;;-1.71;69.48;98886.95;108038;1279;22623;-76
2022/04/18 04:31:44;;;;;;;102.30;46.50;;;;;;;-1.67;70.04;98887.92;108046;1279;25437;-76
2022/04/18 04:34:12;;;;;;;102.60;50.70;;;;;;;-1.66;70.24;98884.82;108054;1279;22640;-75
2022/04/18 04:36:40;;;;;;;110.00;50.90;;;;;;;-1.63;70.10;98886.52;108033;1279;22851;-75
2022/04/18 04:39:08;;;;;;;106.20;49.70;;;;;;;-1.59;69.99;98890.20;108028;1278;22703;-75
2022/04/18 04:41:37;;;;;;;106.80;49.90;;;;;;;-1.54;69.80;98886.90;108325;1278;22562;-74
2022/04/18 04:44:06;;;;;;;106.10;48.10;;;;;;;-1.48;69.69;98888.02;108290;1279;22623;-75
2022/04/18 04:46:34;;;;;;;106.20;48.60;;;;;;;-1.43;69.47;98884.87;108313;1279;25424;-75
2022/04/18 04:49:02;;;;;;;108.90;51.30;;;;;;;-1.35;69.26;98883.92;108289;1279;22555;-78
2022/04/18 04:51:30;;;;;;;104.70;49.70;;;;;;;-1.27;69.52;98879.88;107975;1279;22823;-74
2022/04/18 04:53:57;;;;;;;113.70;54.50;;;;;;;-1.20;70.72;98882.69;108013;1279;22552;-75
2022/04/18 04:56:28;;;;;;;120.40;54.00;;;;;;;-1.16;71.57;98881.41;108028;1279;22893;-75
2022/04/18 04:58:55;;;;;;;135.00;63.60;;;;;;;-1.16;71.55;98878.18;107999;1279;22748;-75
2022/04/18 05:01:22;;;;;;;139.60;64.60;;;;;;;-1.16;71.22;98880.05;108036;1279;23249;-75
2022/04/18 05:03:50;;;;;;;137.00;66.70;;;;;;;-1.08;71.08;98890.20;108044;1279;22585;-74
2022/04/18 05:06:17;;;;;;;139.80;64.10;;;;;;;-0.85;70.67;98888.84;108037;1279;22546;-74
2022/04/18 05:08:44;;;;;;;140.70;65.80;;;;;;;-0.54;70.61;98889.70;108018;1279;22528;-75
2022/04/18 05:11:11;;;;;;;141.00;65.50;;;;;;;-0.21;70.57;98889.14;108036;1279;22581;-75
2022/04/18 05:13:38;;;;;;;144.60;67.40;;;;;;;0.06;70.59;98889.15;108033;1279;25061;-75
2022/04/18 05:16:05;;;;;;;137.00;65.90;;;;;;;0.28;70.41;98886.83;108009;1279;23016;-75
2022/04/18 05:18:32;;;;;;;134.50;68.10;;;;;;;0.44;70.37;98885.32;108049;1279;22739;-75
2022/04/18 05:20:59;;;;;;;128.20;64.30;;;;;;;0.55;70.15;98882.87;107996;1279;22540;-75
2022/04/18 05:23:26;;;;;;;130.90;66.70;;;;;;;0.68;70.21;98883.60;108021;1279;22668;-75
2022/04/18 05:25:53;;;;;;;126.80;60.60;;;;;;;0.81;70.79;98881.96;108005;1279;22572;-75
2022/04/18 05:28:21;;;;;;;124.00;62.10;;;;;;;0.89;71.51;98879.55;108017;1279;22633;-75
2022/04/18 05:30:48;;;;;;;140.00;67.90;;;;;;;0.94;71.37;98880.30;108010;1279;24390;-75
2022/04/18 05:33:15;;;;;;;140.00;72.50;;;;;;;0.94;70.72;98878.06;108031;1277;23506;-75
2022/04/18 05:35:42;;;;;;;144.80;78.90;;;;;;;0.95;70.48;98881.31;108018;1279;22628;-75
2022/04/18 05:38:09;;;;;;;141.10;77.00;;;;;;;0.90;70.26;98881.76;108017;1279;22629;-77
2022/04/18 05:40:36;;;;;;;140.80;74.80;;;;;;;0.90;70.09;98885.17;108066;1279;22684;-75
2022/04/18 05:43:03;;;;;;;138.10;73.30;;;;;;;0.94;69.91;98882.86;108013;1279;22579;-75
2022/04/18 05:45:30;;;;;;;135.70;68.00;;;;;;;0.98;69.64;98887.41;108049;1278;22632;-75
2022/04/18 05:47:57;;;;;;;128.50;65.70;;;;;;;1.08;69.83;98884.42;108014;1279;22540;-74
2022/04/18 05:50:24;;;;;;;127.20;66.10;;;;;;;1.18;70.55;98882.66;108083;1279;22537;-74
2022/04/18 05:52:51;;;;;;;127.70;65.40;;;;;;;1.28;71.09;98882.93;108094;1279;22625;-74
2022/04/18 05:55:18;;;;;;;131.10;68.20;;;;;;;1.40;71.03;98884.86;108076;1279;22530;-77
2022/04/18 05:57:45;;;;;;;134.80;67.90;;;;;;;1.53;70.76;98879.24;108002;1279;22698;-74
2022/04/18 06:00:13;;;;;;;133.40;71.00;;;;;;;1.64;70.44;98876.21;108067;1279;22702;-75
2022/04/18 06:02:40;;;;;;;131.20;71.50;;;;;;;1.72;70.41;98876.67;108016;1279;23158;-75
2022/04/18 06:05:07;;;;;;;138.90;72.70;;;;;;;1.77;70.41;98873.98;108009;1279;22537;-75
2022/04/18 06:07:34;;;;;;;140.70;72.10;;;;;;;1.86;70.24;98871.52;108011;1279;22622;-75
2022/04/18 06:10:03;;;;;;;127.50;70.50;;;;;;;2.01;70.65;98870.62;108007;1279;22556;-76
2022/04/18 06:12:31;;;;;;;130.00;66.10;;;;;;;2.17;71.15;98865.01;107999;1279;22857;-75
2022/04/18 06:14:58;;;;;;;125.50;68.20;;;;;;;2.35;71.57;98866.91;108007;1279;22704;-75
2022/04/18 06:17:25;;;;;;;126.40;65.50;;;;;;;2.44;71.30;98863.89;108046;1279;22627;-76
2022/04/18 06:19:52;;;;;;;119.90;63.10;;;;;;;2.51;70.83;98864.91;108079;1279;25437;-75
2022/04/18 06:22:19;;;;;;;120.10;59.70;;;;;;;2.64;70.31;98865.21;108060;1279;22650;-75
2022/04/18 06:24:46;;;;;;;102.20;53.20;;;;;;;2.76;70.23;98865.02;108011;1279;25717;-76
2022/04/18 06:27:13;;;;;;;92.90;47.10;;;;;;;2.93;69.70;98864.14;108012;1279;23668;-75
2022/04/18 06:29:40;;;;;;;81.50;42.50;;;;;;;3.14;69.31;98867.47;108052;1279;23169;-78
2022/04/18 06:32:08;;;;;;;67.50;36.90;;;;;;;3.38;68.45;98870.98;108023;1279;22580;-76
2022/04/18 06:34:35;;;;;;;78.90;41.40;;;;;;;3.64;67.90;98868.25;108055;1278;22541;-76
2022/04/18 06:37:02;;;;;;;58.50;31.60;;;;;;;3.90;66.93;98862.67;108062;1279;24381;-76
2022/04/18 06:39:29;;;;;;;32.80;18.60;;;;;;;4.13;66.07;98864.11;108026;1279;22703;-75
2022/04/18 06:41:56;;;;;;;27.00;13.90;;;;;;;4.38;64.98;98862.52;108010;1279;22598;-78
2022/04/18 06:44:24;;;;;;;22.30;11.50;;;;;;;4.70;63.25;98866.86;108002;1279;22613;-77
2022/04/18 06:46:51;;;;;;;22.00;11.70;;;;;;;5.06;60.85;98859.59;108090;1279;22545;-76
2022/04/18 06:49:18;;;;;;;30.90;12.80;;;;;;;5.36;59.95;98861.16;108061;1279;24216;-74
2022/04/18 06:51:45;;;;;;;14.80;9.00;;;;;;;5.59;58.59;98863.16;108014;1279;22794;-74
2022/04/18 06:54:12;;;;;;;17.50;9.00;;;;;;;5.65;57.00;98859.92;108020;1279;22541;-75
2022/04/18 06:59:29;;;;;;;19.90;10.60;;;;;;;5.78;56.43;98855.61;108058;1279;23222;-74
2022/04/18 07:01:57;;;;;;;25.90;15.80;;;;;;;5.77;56.28;98853.75;108040;1279;23181;-76
2022/04/18 07:04:25;;;;;;;29.50;17.10;;;;;;;5.80;56.75;98853.44;108038;1279;22546;-75
2022/04/18 07:06:53;;;;;;;20.30;11.20;;;;;;;5.86;56.11;98847.52;108031;1279;24293;-76
2022/04/18 07:09:20;;;;;;;23.40;13.70;;;;;;;5.99;55.36;98848.16;108023;1278;22561;-75
2022/04/18 07:11:47;;;;;;;21.70;11.10;;;;;;;6.17;55.45;98844.46;108064;1279;24270;-75
2022/04/18 07:14:15;;;;;;;40.30;17.10;;;;;;;6.37;54.88;98842.70;108014;1279;22695;-75
2022/04/18 07:16:44;;;;;;;29.90;14.10;;;;;;;6.56;54.08;98843.40;107996;1279;22859;-75
2022/04/18 07:19:11;;;;;;;21.70;11.50;;;;;;;6.70;53.52;98845.00;108059;1279;22548;-75
2022/04/18 07:21:38;;;;;;;15.90;9.20;;;;;;;6.86;52.54;98840.79;108018;1279;22715;-76
2022/04/18 07:24:06;;;;;;;18.40;10.50;;;;;;;6.98;52.00;98844.19;108053;1279;22588;-74
2022/04/18 07:26:34;;;;;;;16.90;9.40;;;;;;;7.10;51.08;98844.99;108027;1279;22595;-75
2022/04/18 07:29:02;;;;;;;15.40;8.10;;;;;;;7.22;51.04;98840.46;108109;1279;22546;-75
2022/04/18 07:31:29;;;;;;;12.60;5.90;;;;;;;7.35;49.81;98839.84;108044;1279;25549;-75
2022/04/18 07:33:56;;;;;;;9.20;5.40;;;;;;;7.44;48.74;98838.52;108027;1279;22537;-75
2022/04/18 07:36:24;;;;;;;15.90;7.20;;;;;;;7.52;48.49;98838.63;108031;1279;22559;-75
2022/04/18 07:38:51;;;;;;;12.70;7.20;;;;;;;7.59;47.95;98837.24;108055;1279;26104;-75
2022/04/18 07:41:23;;;;;;;15.80;7.70;;;;;;;7.68;47.67;98834.90;108022;1279;22567;-75
2022/04/18 07:43:51;;;;;;;13.80;7.10;;;;;;;7.79;47.73;98829.32;108021;1278;22522;-75
2022/04/18 07:46:20;;;;;;;12.20;7.00;;;;;;;7.90;46.32;98832.20;108004;1279;22563;-75
2022/04/18 07:48:51;;;;;;;11.80;7.00;;;;;;;7.88;44.86;98827.44;108016;1279;22600;-75
2022/04/18 07:51:35;;;;;;;13.40;8.00;;;;;;;7.82;45.76;98828.44;108030;1279;22581;-74
2022/04/18 07:54:05;;;;;;;13.30;7.50;;;;;;;7.75;45.13;98826.23;108087;1279;22651;-75
2022/04/18 07:56:33;;;;;;;12.30;7.00;;;;;;;7.61;45.18;98828.83;108042;1279;22561;-74
2022/04/18 07:59:01;;;;;;;8.90;5.30;;;;;;;7.55;44.96;98829.32;107992;1279;22549;-74
2022/04/18 08:01:29;;;;;;;9.60;5.40;;;;;;;7.42;44.60;98825.78;108096;1279;22606;-74
2022/04/18 08:03:57;;;;;;;13.40;6.50;;;;;;;7.40;44.74;98823.64;108068;1279;25319;-74
2022/04/18 08:06:24;;;;;;;28.40;13.00;;;;;;;7.45;44.68;98825.44;108047;1278;23014;-75
2022/04/18 08:08:51;;;;;;;19.20;9.40;;;;;;;7.47;44.87;98820.85;108029;1279;22581;-74
2022/04/18 08:11:18;;;;;;;17.80;7.80;;;;;;;7.57;44.80;98817.41;108043;1279;22564;-75
2022/04/18 08:13:47;;;;;;;18.00;8.30;;;;;;;7.69;44.39;98818.40;108271;1279;22564;-74
2022/04/18 08:16:15;;;;;;;13.50;6.40;;;;;;;7.77;44.15;98814.65;108085;1279;22577;-76
2022/04/18 08:18:44;;;;;;;12.40;8.30;;;;;;;7.91;43.82;98820.19;108062;1279;24716;-74
2022/04/18 08:21:14;;;;;;;11.90;6.90;;;;;;;8.02;43.46;98816.52;108050;1279;22617;-74
2022/04/18 08:23:43;;;;;;;11.40;5.30;;;;;;;8.18;43.57;98816.88;108053;1279;22539;-74
2022/04/18 08:26:10;;;;;;;10.10;4.80;;;;;;;8.43;43.31;98813.48;108064;1279;22694;-75
2022/04/18 08:28:38;;;;;;;9.00;4.50;;;;;;;8.72;42.56;98813.81;108036;1279;22626;-75
2022/04/18 08:31:07;;;;;;;8.50;4.10;;;;;;;8.88;42.03;98814.48;107952;1279;22551;-76
2022/04/18 08:33:35;;;;;;;10.60;5.60;;;;;;;9.01;38.99;98813.27;108022;1279;22560;-75
2022/04/18 08:36:03;;;;;;;7.90;4.70;;;;;;;8.97;38.52;98813.82;108030;1279;22771;-77
2022/04/18 08:38:31;;;;;;;15.90;9.30;;;;;;;8.90;37.25;98812.63;108156;1279;22529;-75
2022/04/18 08:41:04;;;;;;;26.90;17.60;;;;;;;8.76;38.13;98809.29;108049;1279;22644;-73
2022/04/18 08:43:31;;;;;;;12.20;7.80;;;;;;;8.73;38.87;98810.97;108028;1279;22535;-73
2022/04/18 08:45:59;;;;;;;13.50;5.70;;;;;;;8.81;39.03;98813.84;108026;1279;25239;-74
2022/04/18 08:54:00;;;;;;;14.60;6.90;;;;;;;8.92;39.48;98806.27;108309;1279;22547;-73
2022/04/18 08:56:27;;;;;;;347.00;244.10;;;;;;;8.95;38.59;98806.65;108286;1279;22600;-73
2022/04/18 08:58:54;;;;;;;53.60;33.90;;;;;;;8.96;39.67;98805.67;108274;1279;22544;-73
2022/04/18 09:01:21;;;;;;;56.30;19.50;;;;;;;9.01;39.39;98806.83;108308;1279;22664;-73
2022/04/18 09:03:49;;;;;;;38.00;16.00;;;;;;;8.94;39.24;98803.95;108321;1279;24294;-81
2022/04/18 09:06:16;;;;;;;24.40;14.70;;;;;;;8.94;39.75;98798.73;108312;1279;22535;-75
2022/04/18 09:08:56;;;;;;;20.80;9.80;;;;;;;8.98;39.79;98795.17;108332;1279;22623;-78
2022/04/18 09:11:31;;;;;;;22.20;12.90;;;;;;;9.11;39.18;98791.67;107985;1279;22534;-77
2022/04/18 09:14:08;;;;;;;24.90;11.60;;;;;;;9.26;38.52;98789.24;108015;1278;22586;-73
2022/04/18 09:16:36;;;;;;;21.10;10.40;;;;;;;9.53;37.93;98778.10;108043;1277;22591;-74
2022/04/18 09:19:16;;;;;;;10.10;5.50;;;;;;;9.80;35.94;98777.22;108046;1279;24426;-75
2022/04/18 09:21:50;;;;;;;12.00;7.60;;;;;;;9.98;35.04;98774.70;108019;1279;22570;-73
2022/04/18 09:24:37;;;;;;;22.20;13.80;;;;;;;10.09;34.68;98776.98;108293;1279;22625;-80
2022/04/18 09:27:09;;;;;;;23.80;11.70;;;;;;;10.19;35.37;98775.24;108347;1279;22547;-80
2022/04/18 09:29:40;;;;;;;19.20;11.40;;;;;;;10.34;35.09;98778.28;108306;1278;22535;-74
2022/04/18 09:32:08;;;;;;;27.00;10.60;;;;;;;10.44;35.32;98781.86;108311;1279;22528;-74
2022/04/18 09:34:36;;;;;;;39.40;14.40;;;;;;;10.56;34.88;98785.25;108314;1279;22562;-74
2022/04/18 09:37:17;;;;;;;10.20;5.40;;;;;;;10.50;34.97;98787.91;108297;1279;22701;-73
2022/04/18 09:39:51;;;;;;;7.50;4.40;;;;;;;10.46;34.48;98781.86;108303;1279;25918;-73
2022/04/18 09:42:21;;;;;;;10.40;6.40;;;;;;;10.42;34.56;98779.90;108298;1279;22659;-73
2022/04/18 09:44:50;;;;;;;9.60;6.40;;;;;;;10.47;34.65;98777.64;108301;1279;22620;-73
2022/04/18 09:47:18;;;;;;;11.00;6.50;;;;;;;10.51;34.43;98770.45;108320;1279;25289;-73
2022/04/18 09:49:46;;;;;;;14.20;7.90;;;;;;;10.55;34.79;98774.90;108309;1279;22567;-74
2022/04/18 09:52:18;;;;;;;12.30;7.20;;;;;;;10.51;34.18;98769.71;108358;1279;25363;-73
2022/04/18 09:54:54;;;;;;;39.10;19.00;;;;;;;10.45;33.17;98764.88;108309;1279;22562;-74
2022/04/18 09:57:22;;;;;;;20.30;11.30;;;;;;;10.33;33.47;98766.02;108344;1279;22555;-74
2022/04/18 09:59:51;;;;;;;12.00;7.60;;;;;;;10.32;33.77;98758.90;108297;1279;25459;-73
2022/04/18 10:02:19;;;;;;;17.00;8.90;;;;;;;10.27;33.39;98755.37;108330;1278;22556;-75
2022/04/18 10:04:46;;;;;;;27.50;12.40;;;;;;;10.33;33.03;98746.84;108315;1279;26025;-74
2022/04/18 10:07:14;;;;;;;10.20;6.20;;;;;;;10.32;33.09;98750.06;108312;1279;22621;-75
2022/04/18 10:09:42;;;;;;;7.80;4.70;;;;;;;10.43;32.09;98750.74;108314;1279;22706;-74
2022/04/18 10:12:12;;;;;;;10.20;6.80;;;;;;;10.32;31.06;98749.31;108313;1279;22655;-74
2022/04/18 10:14:41;;;;;;;10.40;6.40;;;;;;;10.36;31.70;98745.25;108341;1279;22577;-73
2022/04/18 10:17:10;;;;;;;26.80;13.10;;;;;;;10.48;32.31;98742.43;108327;1279;22552;-73
2022/04/18 10:19:59;;;;;;;42.00;21.50;;;;;;;10.53;32.04;98744.91;108329;1279;22541;-77
2022/04/18 10:22:31;;;;;;;20.80;11.00;;;;;;;10.59;31.92;98739.79;108345;1279;22557;-74
2022/04/18 10:25:24;;;;;;;22.70;11.90;;;;;;;10.68;31.16;98744.08;108327;1279;22982;-77
2022/04/18 10:28:22;;;;;;;20.70;11.50;;;;;;;10.70;31.09;98738.08;108058;1278;24468;-77
2022/04/18 10:31:00;;;;;;;18.50;9.60;;;;;;;10.70;30.81;98737.85;107983;1279;22562;-74
2022/04/18 10:33:28;;;;;;;13.70;6.90;;;;;;;10.62;31.36;98735.79;108034;1279;22557;-73
2022/04/18 10:36:01;;;;;;;48.90;33.10;;;;;;;10.67;31.26;98733.17;108056;1279;22555;-74
2022/04/18 10:38:33;;;;;;;57.40;36.00;;;;;;;10.79;31.21;98734.52;108072;1279;25481;-73
2022/04/18 10:41:15;;;;;;;33.30;23.10;;;;;;;11.07;31.16;98729.36;108124;1279;22741;-74
2022/04/18 10:44:10;;;;;;;35.70;28.20;;;;;;;11.25;30.82;98722.61;108173;1279;24483;-75
2022/04/18 10:46:41;;;;;;;17.80;13.40;;;;;;;11.30;30.55;98721.02;108309;1279;22535;-76
2022/04/18 10:49:16;;;;;;;36.20;22.00;;;;;;;11.44;31.16;98712.64;108316;1279;22583;-75
2022/04/18 10:51:45;;;;;;;20.70;12.40;;;;;;;11.56;30.53;98712.34;108298;1279;22552;-76
2022/04/18 10:54:21;;;;;;;22.30;14.40;;;;;;;11.53;30.01;98714.92;108235;1279;24116;-75
2022/04/18 10:56:57;;;;;;;12.70;7.70;;;;;;;11.50;29.99;98711.18;108288;1279;22549;-76
2022/04/18 10:59:46;;;;;;;18.30;12.20;;;;;;;11.53;29.89;98706.77;108330;1279;24312;-75
2022/04/18 11:02:44;;;;;;;10.90;6.60;;;;;;;11.53;30.36;98698.89;108331;1279;24353;-77
2022/04/18 11:05:11;;;;;;;15.60;9.00;;;;;;;11.60;30.18;98700.85;108307;1279;22539;-76
2022/04/18 11:07:44;;;;;;;15.40;8.30;;;;;;;11.61;29.86;98701.48;108316;1279;24361;-76
2022/04/18 11:10:20;;;;;;;17.10;8.90;;;;;;;11.33;30.08;98701.69;108328;1279;22541;-75
2022/04/18 11:12:49;;;;;;;12.00;7.20;;;;;;;11.03;30.44;98704.55;108317;1279;22539;-76
2022/04/18 11:15:17;;;;;;;14.10;7.00;;;;;;;10.84;31.15;98701.40;108291;1279;22588;-75
2022/04/18 11:17:44;;;;;;;10.10;6.20;;;;;;;10.78;30.94;98698.19;108320;1279;22554;-75
2022/04/18 11:20:30;;;;;;;9.30;5.10;;;;;;;10.79;31.19;98691.98;108318;1279;22550;-75
2022/04/18 11:23:25;;;;;;;7.50;4.00;;;;;;;10.99;31.46;98686.50;108322;1279;22540;-74
2022/04/18 11:26:03;;;;;;;12.50;6.20;;;;;;;11.19;31.25;98686.70;108334;1279;22549;-75
2022/04/18 11:28:44;;;;;;;9.70;5.50;;;;;;;11.51;31.11;98680.20;108339;1279;22548;-74
2022/04/18 11:31:18;;;;;;;11.90;6.80;;;;;;;11.64;30.09;98683.48;108316;1279;22623;-74